Time;durP1;ratioP1;P1;durP2;ratioP2;P2;SDS_P1;SDS_P2;PMS_P1;PMS_P2;Temp;Humidity;BMP_temperature;BMP_pressure;BME280_temperature;BME280_humidity;BME280_pressure;Samples;Min_cycle;Max_cycle;Signal;HPM_P1;HPM_P2
2022/03/05 00:00:33;;;;;;;21.55;9.93;;;;;;;;;;6277644;22;20020;-63
2022/03/05 00:03:00;;;;;;;19.35;9.80;;;;;;;;;;6250275;22;20116;-63
2022/03/05 00:05:26;;;;;;;16.98;8.57;;;;;;;;;;6278256;22;20016;-63
2022/03/05 00:07:52;;;;;;;18.60;9.15;;;;;;;;;;6251122;22;20095;-64
2022/03/05 00:10:21;;;;;;;18.83;10.38;;;;;;;;;;6250902;22;20019;-63
2022/03/05 00:12:51;;;;;;;22.58;10.50;;;;;;;;;;6277322;22;20012;-63
2022/03/05 00:15:17;;;;;;;15.27;7.50;;;;;;;;;;6250865;22;20441;-64
2022/03/05 00:17:44;;;;;;;17.00;9.15;;;;;;;;;;6277578;22;20015;-63
2022/03/05 00:20:11;;;;;;;19.35;9.35;;;;;;;;;;6250288;22;20375;-63
2022/03/05 00:22:37;;;;;;;15.63;8.90;;;;;;;;;;6277518;22;20066;-63
2022/03/05 00:25:04;;;;;;;19.38;9.40;;;;;;;;;;6278860;22;20094;-63
2022/03/05 00:27:30;;;;;;;19.92;9.63;;;;;;;;;;6279642;22;20359;-63
2022/03/05 00:29:57;;;;;;;20.33;10.20;;;;;;;;;;6279031;22;20019;-63
2022/03/05 00:32:23;;;;;;;28.35;10.07;;;;;;;;;;6278859;22;20329;-63
2022/03/05 00:34:49;;;;;;;20.75;9.98;;;;;;;;;;6279241;22;20030;-63
2022/03/05 00:37:15;;;;;;;20.88;10.15;;;;;;;;;;6252539;22;20043;-63
2022/03/05 00:39:41;;;;;;;22.52;11.10;;;;;;;;;;6279133;22;20015;-63
2022/03/05 00:42:08;;;;;;;24.27;9.88;;;;;;;;;;6278017;22;20015;-63
2022/03/05 00:44:34;;;;;;;21.30;9.68;;;;;;;;;;6227046;22;20024;-63
2022/03/05 00:47:01;;;;;;;19.58;9.30;;;;;;;;;;6279219;22;20054;-63
2022/03/05 00:49:27;;;;;;;19.98;9.38;;;;;;;;;;6279162;22;20027;-63
2022/03/05 00:51:53;;;;;;;17.80;8.90;;;;;;;;;;6279462;22;20027;-63
2022/03/05 00:54:20;;;;;;;20.17;10.07;;;;;;;;;;6278554;22;20480;-63
2022/03/05 00:56:46;;;;;;;19.27;10.30;;;;;;;;;;6251823;22;20015;-63
2022/03/05 00:59:12;;;;;;;19.73;10.18;;;;;;;;;;6252260;22;20019;-63
2022/03/05 01:01:39;;;;;;;17.48;9.45;;;;;;;;;;6227412;22;20054;-63
2022/03/05 01:04:05;;;;;;;21.23;10.35;;;;;;;;;;6251259;22;20015;-63
2022/03/05 01:06:31;;;;;;;23.85;11.45;;;;;;;;;;6251513;22;20011;-63
2022/03/05 01:08:58;;;;;;;20.67;9.70;;;;;;;;;;6278338;22;20317;-63
2022/03/05 01:11:25;;;;;;;22.55;9.68;;;;;;;;;;6252856;22;20011;-63
2022/03/05 01:13:51;;;;;;;20.42;10.20;;;;;;;;;;6279497;22;20061;-63
2022/03/05 01:16:17;;;;;;;20.02;10.15;;;;;;;;;;6251374;22;20007;-63
2022/03/05 01:18:44;;;;;;;24.30;10.45;;;;;;;;;;6278434;22;20482;-63
2022/03/05 01:21:10;;;;;;;23.08;9.95;;;;;;;;;;6226318;22;20019;-63
2022/03/05 01:23:36;;;;;;;21.33;10.23;;;;;;;;;;6277766;22;20303;-63
2022/03/05 01:26:02;;;;;;;18.02;8.98;;;;;;;;;;6278859;22;20022;-64
2022/03/05 01:28:28;;;;;;;19.42;9.75;;;;;;;;;;6226678;22;20318;-63
2022/03/05 01:30:54;;;;;;;20.13;9.82;;;;;;;;;;6278323;22;20500;-63
2022/03/05 01:33:21;;;;;;;18.83;9.07;;;;;;;;;;6226080;22;20329;-63
2022/03/05 01:35:48;;;;;;;23.58;10.07;;;;;;;;;;6278683;22;20016;-63
2022/03/05 01:38:14;;;;;;;21.15;9.63;;;;;;;;;;6251663;22;20023;-63
2022/03/05 01:40:40;;;;;;;17.67;9.95;;;;;;;;;;6251515;22;20016;-63
2022/03/05 01:43:06;;;;;;;18.98;9.23;;;;;;;;;;6278840;22;20086;-64
2022/03/05 01:45:32;;;;;;;21.08;9.65;;;;;;;;;;6251106;22;20090;-63
2022/03/05 01:47:59;;;;;;;19.50;9.25;;;;;;;;;;6226562;22;20407;-63
2022/03/05 01:50:25;;;;;;;22.08;9.05;;;;;;;;;;6279259;22;20095;-63
2022/03/05 01:52:51;;;;;;;20.83;9.77;;;;;;;;;;6278155;22;20011;-63
2022/03/05 01:55:17;;;;;;;20.38;10.43;;;;;;;;;;6278514;22;20018;-63
2022/03/05 01:57:43;;;;;;;22.05;10.80;;;;;;;;;;6252697;22;20020;-63
2022/03/05 02:00:10;;;;;;;19.27;9.82;;;;;;;;;;6277984;22;20519;-63
2022/03/05 02:02:36;;;;;;;20.50;10.00;;;;;;;;;;6277944;22;20011;-64
2022/03/05 02:05:03;;;;;;;21.75;9.13;;;;;;;;;;6279547;22;20360;-63
2022/03/05 02:07:29;;;;;;;19.92;9.55;;;;;;;;;;6251356;22;20011;-64
2022/03/05 02:09:55;;;;;;;21.83;10.68;;;;;;;;;;6226385;22;20294;-63
2022/03/05 02:12:30;;;;;;;19.63;9.27;;;;;;;;;;6278554;22;20317;-63
2022/03/05 02:14:59;;;;;;;19.08;10.05;;;;;;;;;;6277863;22;20019;-64
2022/03/05 02:17:26;;;;;;;20.52;9.45;;;;;;;;;;6278248;22;20019;-63
2022/03/05 02:19:54;;;;;;;22.55;9.70;;;;;;;;;;6278290;22;20086;-63
2022/03/05 02:22:20;;;;;;;21.60;10.52;;;;;;;;;;6252279;22;20043;-63
2022/03/05 02:24:47;;;;;;;25.52;10.32;;;;;;;;;;6277410;22;20309;-64
2022/03/05 02:27:14;;;;;;;18.92;9.38;;;;;;;;;;6278581;22;20012;-63
2022/03/05 02:29:40;;;;;;;27.42;9.98;;;;;;;;;;6278174;22;20007;-63
2022/03/05 02:32:06;;;;;;;19.20;9.45;;;;;;;;;;6278193;22;20019;-63
2022/03/05 02:34:32;;;;;;;22.55;9.52;;;;;;;;;;6250657;22;20046;-63
2022/03/05 02:36:58;;;;;;;20.60;9.57;;;;;;;;;;6252039;22;20421;-63
2022/03/05 02:39:24;;;;;;;22.10;10.60;;;;;;;;;;6278369;22;20058;-63
2022/03/05 02:41:54;;;;;;;20.88;10.02;;;;;;;;;;6277921;22;20090;-63
2022/03/05 02:44:21;;;;;;;21.15;10.02;;;;;;;;;;6277495;22;20016;-63
2022/03/05 02:46:47;;;;;;;19.17;9.57;;;;;;;;;;6278324;22;20007;-63
2022/03/05 02:49:13;;;;;;;23.17;9.40;;;;;;;;;;6277523;22;20016;-63
2022/03/05 02:51:39;;;;;;;19.70;9.60;;;;;;;;;;6277944;22;20074;-63
2022/03/05 02:54:05;;;;;;;20.23;9.27;;;;;;;;;;6277540;22;20086;-63
2022/03/05 02:56:31;;;;;;;21.27;9.50;;;;;;;;;;6278508;22;20019;-63
2022/03/05 02:58:58;;;;;;;20.25;9.93;;;;;;;;;;6250765;22;20095;-63
2022/03/05 03:01:24;;;;;;;18.83;9.73;;;;;;;;;;6278071;22;20015;-63
2022/03/05 03:03:53;;;;;;;20.27;9.35;;;;;;;;;;6250914;22;20038;-63
2022/03/05 03:06:19;;;;;;;20.15;8.88;;;;;;;;;;6277738;22;20081;-63
2022/03/05 03:08:45;;;;;;;20.45;9.30;;;;;;;;;;6277394;22;20333;-63
2022/03/05 03:11:11;;;;;;;21.33;9.82;;;;;;;;;;6225355;22;20022;-62
2022/03/05 03:13:38;;;;;;;18.85;9.07;;;;;;;;;;6277732;22;20064;-63
2022/03/05 03:16:05;;;;;;;19.02;9.27;;;;;;;;;;6250431;22;20015;-63
2022/03/05 03:18:31;;;;;;;19.02;8.60;;;;;;;;;;6278330;22;20027;-63
2022/03/05 03:20:57;;;;;;;22.35;9.70;;;;;;;;;;6250619;22;20016;-63
2022/03/05 03:23:23;;;;;;;18.02;8.85;;;;;;;;;;6250445;22;20011;-63
2022/03/05 03:25:49;;;;;;;20.85;9.13;;;;;;;;;;6277680;22;20098;-63
2022/03/05 03:28:15;;;;;;;22.02;8.95;;;;;;;;;;6277271;22;20073;-63
2022/03/05 03:30:41;;;;;;;18.40;9.23;;;;;;;;;;6250276;22;20019;-63
2022/03/05 03:33:07;;;;;;;21.92;8.80;;;;;;;;;;6276655;22;20491;-63
2022/03/05 03:35:33;;;;;;;17.10;8.13;;;;;;;;;;6277763;22;20429;-63
2022/03/05 03:37:59;;;;;;;21.42;9.63;;;;;;;;;;6277464;22;20027;-62
2022/03/05 03:40:25;;;;;;;20.05;9.23;;;;;;;;;;6277497;22;20439;-62
2022/03/05 03:42:51;;;;;;;21.60;9.05;;;;;;;;;;6250327;22;20022;-63
2022/03/05 03:45:18;;;;;;;21.23;8.20;;;;;;;;;;6278491;22;20086;-63
2022/03/05 03:47:45;;;;;;;22.73;9.30;;;;;;;;;;6276885;22;20012;-63
2022/03/05 03:50:12;;;;;;;17.20;7.72;;;;;;;;;;6277422;22;20025;-63
2022/03/05 03:52:38;;;;;;;17.17;8.60;;;;;;;;;;6250763;22;20429;-63
2022/03/05 03:55:07;;;;;;;16.23;7.65;;;;;;;;;;6277428;22;20016;-63
2022/03/05 03:57:33;;;;;;;19.17;9.90;;;;;;;;;;6224891;22;20011;-63
2022/03/05 04:00:02;;;;;;;22.25;9.02;;;;;;;;;;6277367;22;20061;-62
2022/03/05 04:02:28;;;;;;;21.38;7.88;;;;;;;;;;6250150;22;20294;-63
2022/03/05 04:04:54;;;;;;;18.83;7.93;;;;;;;;;;6251201;22;20007;-63
2022/03/05 04:10:10;;;;;;;16.10;7.72;;;;;;;;;;6277598;22;20020;-62
2022/03/05 04:12:36;;;;;;;15.73;7.95;;;;;;;;;;6277334;22;20012;-62
2022/03/05 04:15:03;;;;;;;18.42;7.40;;;;;;;;;;6250290;22;20023;-62
2022/03/05 04:17:29;;;;;;;19.35;7.82;;;;;;;;;;6276936;22;20015;-62
2022/03/05 04:19:55;;;;;;;14.55;7.60;;;;;;;;;;6250338;22;20023;-63
2022/03/05 04:22:21;;;;;;;17.95;8.60;;;;;;;;;;6276959;22;20309;-63
2022/03/05 04:24:47;;;;;;;16.17;7.80;;;;;;;;;;6250255;22;20016;-63
2022/03/05 04:27:13;;;;;;;20.80;8.13;;;;;;;;;;6277137;22;20562;-62
2022/03/05 04:29:40;;;;;;;16.92;7.38;;;;;;;;;;6250614;22;20309;-63
2022/03/05 04:32:06;;;;;;;14.02;6.68;;;;;;;;;;6277111;22;20126;-63
2022/03/05 04:34:32;;;;;;;20.58;8.15;;;;;;;;;;6277195;22;20446;-62
2022/03/05 04:36:58;;;;;;;20.33;9.55;;;;;;;;;;6250424;22;20027;-63
2022/03/05 04:39:25;;;;;;;19.48;7.93;;;;;;;;;;6250987;22;20031;-63
2022/03/05 04:41:51;;;;;;;16.50;7.13;;;;;;;;;;6250248;22;20088;-63
2022/03/05 04:44:17;;;;;;;16.17;7.25;;;;;;;;;;6278375;22;20126;-62
2022/03/05 04:46:43;;;;;;;22.08;7.88;;;;;;;;;;6251446;22;20027;-62
2022/03/05 04:49:12;;;;;;;18.67;8.20;;;;;;;;;;6277121;22;20441;-62
2022/03/05 04:51:41;;;;;;;18.73;7.15;;;;;;;;;;6277128;22;20020;-63
2022/03/05 04:54:09;;;;;;;19.50;8.80;;;;;;;;;;6225136;22;20007;-63
2022/03/05 04:56:36;;;;;;;19.67;8.45;;;;;;;;;;6277444;22;20058;-63
2022/03/05 04:59:05;;;;;;;18.30;7.03;;;;;;;;;;6276554;22;20011;-63
2022/03/05 05:01:31;;;;;;;18.27;8.00;;;;;;;;;;6250924;22;20295;-63
2022/03/05 05:03:57;;;;;;;18.83;7.70;;;;;;;;;;6249858;22;20065;-63
2022/03/05 05:06:24;;;;;;;20.02;8.88;;;;;;;;;;6276973;22;20018;-63
2022/03/05 05:08:51;;;;;;;16.75;7.97;;;;;;;;;;6277443;22;20328;-63
2022/03/05 05:11:17;;;;;;;18.95;7.18;;;;;;;;;;6280247;22;20011;-62
2022/03/05 05:13:43;;;;;;;18.60;8.85;;;;;;;;;;6251785;22;20019;-63
2022/03/05 05:16:09;;;;;;;21.67;8.77;;;;;;;;;;6252200;22;20022;-63
2022/03/05 05:18:35;;;;;;;16.85;7.80;;;;;;;;;;6251366;22;20014;-63
2022/03/05 05:21:01;;;;;;;19.58;8.73;;;;;;;;;;6251490;22;20054;-63
2022/03/05 05:23:27;;;;;;;21.05;8.10;;;;;;;;;;6252334;22;20012;-63
2022/03/05 05:25:54;;;;;;;21.27;8.05;;;;;;;;;;6227295;22;20012;-63
2022/03/05 05:28:20;;;;;;;20.20;9.20;;;;;;;;;;6278858;22;20051;-63
2022/03/05 05:30:46;;;;;;;20.00;8.25;;;;;;;;;;6252369;22;20051;-63
2022/03/05 05:33:12;;;;;;;22.02;8.68;;;;;;;;;;6252153;22;20297;-63
2022/03/05 05:35:38;;;;;;;19.48;8.85;;;;;;;;;;6278611;22;20500;-63
2022/03/05 05:38:04;;;;;;;16.67;7.80;;;;;;;;;;6252196;22;20351;-63
2022/03/05 05:40:30;;;;;;;18.60;8.18;;;;;;;;;;6278264;22;20457;-62
2022/03/05 05:42:56;;;;;;;21.55;8.90;;;;;;;;;;6279433;22;20015;-63
2022/03/05 05:45:22;;;;;;;19.25;8.13;;;;;;;;;;6225539;22;20321;-63
2022/03/05 05:47:49;;;;;;;26.00;9.57;;;;;;;;;;6251188;22;20016;-63
2022/03/05 05:50:15;;;;;;;23.38;9.82;;;;;;;;;;6226254;22;20108;-63
2022/03/05 05:52:41;;;;;;;21.20;8.77;;;;;;;;;;6251317;22;20058;-63
2022/03/05 05:55:07;;;;;;;24.25;9.80;;;;;;;;;;6252452;22;20309;-64
2022/03/05 05:57:33;;;;;;;19.98;7.53;;;;;;;;;;6251045;22;20433;-63
2022/03/05 05:59:59;;;;;;;21.45;8.43;;;;;;;;;;6252116;22;20039;-63
2022/03/05 06:02:25;;;;;;;19.30;7.95;;;;;;;;;;6277435;22;20428;-63
2022/03/05 06:04:51;;;;;;;23.35;9.00;;;;;;;;;;6250963;22;20079;-63
2022/03/05 06:07:17;;;;;;;21.48;8.30;;;;;;;;;;6251374;22;20018;-63
2022/03/05 06:09:43;;;;;;;20.20;8.38;;;;;;;;;;6277891;22;20012;-63
2022/03/05 06:12:12;;;;;;;23.48;9.50;;;;;;;;;;6251337;22;20043;-63
2022/03/05 06:14:38;;;;;;;22.10;8.75;;;;;;;;;;6251173;22;20441;-63
2022/03/05 06:17:04;;;;;;;19.65;8.75;;;;;;;;;;6252249;22;20414;-63
2022/03/05 06:19:30;;;;;;;22.33;9.23;;;;;;;;;;6277585;22;20333;-63
2022/03/05 06:21:56;;;;;;;20.17;8.20;;;;;;;;;;6277492;22;20558;-63
2022/03/05 06:24:22;;;;;;;26.42;8.75;;;;;;;;;;6251230;22;20302;-63
2022/03/05 06:26:48;;;;;;;21.08;9.07;;;;;;;;;;6251142;22;20431;-63
2022/03/05 06:29:17;;;;;;;18.50;8.40;;;;;;;;;;6250748;22;20325;-63
2022/03/05 06:31:43;;;;;;;19.55;8.43;;;;;;;;;;6250457;22;20019;-63
2022/03/05 06:34:09;;;;;;;22.77;8.82;;;;;;;;;;6225830;22;20015;-63
2022/03/05 06:36:36;;;;;;;17.50;7.72;;;;;;;;;;6278803;22;20022;-63
2022/03/05 06:39:02;;;;;;;17.70;8.02;;;;;;;;;;6250691;22;20090;-63
2022/03/05 06:41:28;;;;;;;21.70;8.57;;;;;;;;;;6250582;22;20012;-63
2022/03/05 06:43:54;;;;;;;19.70;8.52;;;;;;;;;;6251191;22;20015;-63
2022/03/05 06:46:20;;;;;;;21.92;9.23;;;;;;;;;;6251192;22;20176;-65
2022/03/05 06:48:46;;;;;;;22.40;8.15;;;;;;;;;;6225763;22;20066;-65
2022/03/05 06:51:17;;;;;;;23.83;9.13;;;;;;;;;;6277517;22;20064;-65
2022/03/05 06:53:43;;;;;;;22.42;8.93;;;;;;;;;;6250858;22;20426;-66
2022/03/05 06:56:12;;;;;;;21.42;8.75;;;;;;;;;;6250483;22;20360;-65
2022/03/05 06:58:39;;;;;;;25.17;10.05;;;;;;;;;;6249580;22;20094;-64
2022/03/05 07:01:07;;;;;;;21.92;8.90;;;;;;;;;;6250034;22;20372;-66
2022/03/05 07:03:33;;;;;;;18.17;7.80;;;;;;;;;;6249729;22;20429;-66
2022/03/05 07:05:59;;;;;;;25.33;9.55;;;;;;;;;;6277882;22;20016;-66
2022/03/05 07:08:25;;;;;;;17.25;8.32;;;;;;;;;;6276498;22;20070;-66
2022/03/05 07:10:51;;;;;;;21.50;8.45;;;;;;;;;;6248919;22;20022;-67
2022/03/05 07:13:18;;;;;;;17.80;8.57;;;;;;;;;;6275715;22;20016;-66
2022/03/05 07:15:44;;;;;;;23.20;9.98;;;;;;;;;;6249364;22;20437;-66
2022/03/05 07:18:10;;;;;;;20.05;7.50;;;;;;;;;;6249401;22;20018;-67
2022/03/05 07:20:37;;;;;;;17.15;7.97;;;;;;;;;;6248347;22;20011;-66
2022/03/05 07:23:06;;;;;;;21.50;8.80;;;;;;;;;;6250049;22;20417;-67
2022/03/05 07:25:39;;;;;;;19.80;7.35;;;;;;;;;;6224055;22;20016;-67
2022/03/05 07:28:06;;;;;;;20.50;8.30;;;;;;;;;;6250667;22;20029;-67
2022/03/05 07:30:32;;;;;;;19.90;8.68;;;;;;;;;;6249109;22;20019;-67
2022/03/05 07:32:58;;;;;;;18.20;8.43;;;;;;;;;;6224108;22;20012;-67
2022/03/05 07:35:24;;;;;;;18.55;8.10;;;;;;;;;;6249189;22;20019;-67
2022/03/05 07:37:50;;;;;;;17.65;6.88;;;;;;;;;;6224019;22;20086;-67
2022/03/05 07:40:16;;;;;;;17.92;8.55;;;;;;;;;;6224842;22;20015;-68
2022/03/05 07:42:42;;;;;;;19.73;8.45;;;;;;;;;;6248348;22;20011;-68
2022/03/05 07:45:08;;;;;;;18.38;7.55;;;;;;;;;;6248058;22;20008;-68
2022/03/05 07:47:34;;;;;;;15.02;6.45;;;;;;;;;;6223003;22;20016;-67
2022/03/05 07:50:01;;;;;;;17.08;6.72;;;;;;;;;;6248420;22;20016;-67
2022/03/05 07:52:27;;;;;;;17.42;8.32;;;;;;;;;;6247382;22;20451;-67
2022/03/05 07:54:55;;;;;;;16.33;7.88;;;;;;;;;;6238578;22;20514;-68
2022/03/05 07:57:21;;;;;;;16.10;6.95;;;;;;;;;;6236932;22;20016;-68
2022/03/05 07:59:47;;;;;;;15.48;7.45;;;;;;;;;;6217655;22;20027;-68
2022/03/05 08:02:16;;;;;;;16.98;7.07;;;;;;;;;;6248645;22;20086;-67
2022/03/05 08:04:44;;;;;;;17.67;7.95;;;;;;;;;;6249261;22;20044;-67
2022/03/05 08:07:10;;;;;;;19.45;8.07;;;;;;;;;;6247937;22;20015;-68
2022/03/05 08:09:36;;;;;;;17.67;8.30;;;;;;;;;;6249107;22;20022;-67
2022/03/05 08:12:03;;;;;;;17.58;7.43;;;;;;;;;;6276254;22;20445;-67
2022/03/05 08:14:31;;;;;;;18.35;8.48;;;;;;;;;;6248800;22;20030;-67
2022/03/05 08:16:57;;;;;;;17.35;6.75;;;;;;;;;;6249251;22;20145;-67
2022/03/05 08:19:22;;;;;;;15.32;6.43;;;;;;;;;;6248016;22;20055;-67
2022/03/05 08:21:48;;;;;;;17.27;8.13;;;;;;;;;;6222539;22;20047;-67
2022/03/05 08:24:14;;;;;;;18.33;8.27;;;;;;;;;;6222952;22;20476;-66
2022/03/05 08:26:41;;;;;;;20.20;8.10;;;;;;;;;;6248719;22;20046;-66
2022/03/05 08:29:07;;;;;;;18.30;8.18;;;;;;;;;;6247993;22;20329;-66
2022/03/05 08:31:33;;;;;;;21.33;8.45;;;;;;;;;;6248941;22;20011;-66
2022/03/05 08:34:01;;;;;;;21.10;8.77;;;;;;;;;;6247702;22;20023;-66
2022/03/05 08:36:27;;;;;;;19.42;9.48;;;;;;;;;;6247682;22;20012;-66
2022/03/05 08:38:53;;;;;;;20.85;9.40;;;;;;;;;;6248228;22;20008;-66
2022/03/05 08:41:19;;;;;;;17.35;7.90;;;;;;;;;;6248001;22;20352;-66
2022/03/05 08:43:45;;;;;;;20.80;9.48;;;;;;;;;;6248134;22;20012;-66
2022/03/05 08:46:11;;;;;;;18.52;7.78;;;;;;;;;;6223997;22;20012;-66
2022/03/05 08:48:40;;;;;;;19.75;8.93;;;;;;;;;;6250177;22;20099;-66
2022/03/05 08:51:07;;;;;;;17.42;8.18;;;;;;;;;;6276739;22;20013;-67
2022/03/05 08:53:33;;;;;;;23.63;9.35;;;;;;;;;;6225010;22;20020;-66
2022/03/05 08:55:59;;;;;;;21.50;7.15;;;;;;;;;;6249302;22;20347;-66
2022/03/05 08:58:25;;;;;;;21.48;9.20;;;;;;;;;;6249502;22;20432;-66
2022/03/05 09:00:51;;;;;;;17.60;8.57;;;;;;;;;;6250173;22;20023;-66
2022/03/05 09:03:17;;;;;;;22.70;9.25;;;;;;;;;;6249980;22;20103;-66
2022/03/05 09:05:44;;;;;;;21.60;9.18;;;;;;;;;;6249629;22;20582;-66
2022/03/05 09:08:10;;;;;;;15.68;6.93;;;;;;;;;;6250020;22;20050;-66
2022/03/05 09:10:36;;;;;;;22.73;8.15;;;;;;;;;;6249748;22;20018;-66
2022/03/05 09:13:02;;;;;;;20.35;9.25;;;;;;;;;;6248807;22;20012;-66
2022/03/05 09:15:28;;;;;;;24.88;9.77;;;;;;;;;;6224081;22;20011;-66
2022/03/05 09:17:54;;;;;;;21.58;9.55;;;;;;;;;;6277158;22;20065;-66
2022/03/05 09:20:21;;;;;;;21.38;9.23;;;;;;;;;;6249583;22;20412;-65
2022/03/05 09:22:47;;;;;;;23.65;10.20;;;;;;;;;;6249634;22;20015;-65
2022/03/05 09:25:13;;;;;;;21.90;9.07;;;;;;;;;;6249190;22;20428;-66
2022/03/05 09:27:40;;;;;;;19.08;8.73;;;;;;;;;;6249799;22;20094;-66
2022/03/05 09:30:06;;;;;;;23.27;10.13;;;;;;;;;;6249456;22;20523;-65
2022/03/05 09:32:32;;;;;;;22.90;9.88;;;;;;;;;;6276978;22;20042;-65
2022/03/05 09:34:59;;;;;;;22.48;9.75;;;;;;;;;;6249408;22;20361;-65
2022/03/05 09:37:30;;;;;;;20.17;8.50;;;;;;;;;;6249383;22;20413;-65
2022/03/05 09:39:56;;;;;;;23.92;10.77;;;;;;;;;;6277074;22;20016;-65
2022/03/05 09:42:22;;;;;;;21.50;8.98;;;;;;;;;;6248040;22;20008;-65
2022/03/05 09:44:48;;;;;;;24.15;10.88;;;;;;;;;;6276504;22;20027;-65
2022/03/05 09:47:15;;;;;;;24.05;10.35;;;;;;;;;;6249451;22;20022;-65
2022/03/05 09:49:41;;;;;;;22.40;10.40;;;;;;;;;;6249747;22;20103;-65
2022/03/05 09:52:07;;;;;;;22.92;11.10;;;;;;;;;;6248263;22;20085;-65
2022/03/05 09:54:34;;;;;;;19.55;9.18;;;;;;;;;;6250424;22;20007;-65
2022/03/05 09:57:00;;;;;;;21.42;10.48;;;;;;;;;;6223785;22;20441;-65
2022/03/05 09:59:26;;;;;;;21.67;10.27;;;;;;;;;;6225447;22;20466;-65
2022/03/05 10:01:53;;;;;;;25.85;11.05;;;;;;;;;;6225539;22;20051;-65
2022/03/05 10:04:23;;;;;;;26.20;11.65;;;;;;;;;;6248923;22;20008;-64
2022/03/05 10:07:26;;;;;;;20.05;6.95;;;4.70;99.90;;;;;;6252098;22;20302;-65
2022/03/05 10:10:06;;;;;;;25.48;10.95;;;;;;;;;;6277816;22;20011;-65
2022/03/05 10:12:35;;;;;;;24.55;10.07;;;;;;;;;;6250558;22;20019;-65
2022/03/05 10:15:18;;;;;;;24.67;10.18;;;;;;;;;;6250336;22;20012;-64
2022/03/05 10:17:47;;;;;;;25.13;10.80;;;;;;;;;;6250765;22;20421;-64
2022/03/05 10:20:13;;;;;;;21.17;9.80;;;;;;;;;;6277806;22;20012;-63
2022/03/05 10:22:39;;;;;;;26.90;10.85;;;;;;;;;;6224775;22;20444;-63
2022/03/05 10:25:05;;;;;;;26.25;11.65;;;;;;;;;;6250219;22;20043;-63
2022/03/05 10:27:31;;;;;;;23.65;10.95;;;;;;;;;;6250544;22;20019;-63
2022/03/05 10:29:57;;;;;;;25.02;12.55;;;;;;;;;;6250177;22;20016;-63
2022/03/05 10:32:25;;;;;;;23.60;11.07;;;;;;;;;;6250223;22;20488;-63
2022/03/05 10:34:51;;;;;;;24.27;11.57;;;;;;;;;;6250077;22;20086;-63
2022/03/05 10:37:18;;;;;;;26.15;11.98;;;;;;;;;;6277872;22;20046;-63
2022/03/05 10:39:45;;;;;;;24.27;11.07;;;;;;;;;;6223463;22;20042;-63
2022/03/05 10:42:17;;;;;;;28.63;13.27;;;;;;;;;;6247651;22;20294;-64
2022/03/05 10:44:43;;;;;;;29.50;12.57;;;;;;;;;;6222590;22;20325;-63
2022/03/05 10:47:09;;;;;;;28.90;12.82;;;;;;;;;;6277745;22;20011;-64
2022/03/05 10:49:38;;;;;;;25.67;11.25;;;;;;;;;;6250444;22;20424;-63
2022/03/05 10:52:04;;;;;;;25.52;12.20;;;;;;;;;;6248731;22;20022;-63
2022/03/05 10:54:39;;;;;;;24.95;11.65;;;;;;;;;;6224452;22;20035;-63
2022/03/05 10:57:10;;;;;;;25.50;11.02;;;;;;;;;;6250268;22;20019;-56
2022/03/05 10:59:40;;;;;;;25.17;12.57;;;;;;;;;;6225024;22;20016;-56
2022/03/05 11:02:10;;;;;;;30.63;12.02;;;;;;;;;;6249936;22;20486;-56
2022/03/05 11:04:37;;;;;;;29.23;12.80;;;;;;;;;;6225188;22;20016;-56
2022/03/05 11:07:03;;;;;;;27.38;12.20;;;;;;;;;;6224171;22;20055;-56
2022/03/05 11:09:30;;;;;;;25.33;12.13;;;;;;;;;;6225264;22;20019;-56
2022/03/05 11:11:58;;;;;;;23.88;11.15;;;;;;;;;;6224626;22;20012;-56
2022/03/05 11:14:24;;;;;;;26.60;12.68;;;;;;;;;;6225379;22;20018;-56
2022/03/05 11:16:50;;;;;;;30.13;13.05;;;;;;;;;;6250610;22;20011;-56
2022/03/05 11:19:16;;;;;;;26.88;11.50;;;;;;;;;;6250055;22;20450;-56
2022/03/05 11:21:42;;;;;;;29.58;13.77;;;;;;;;;;6277705;22;20090;-56
2022/03/05 11:24:11;;;;;;;23.88;11.45;;;;;;;;;;6224855;22;20086;-56
2022/03/05 11:26:38;;;;;;;24.73;11.40;;;;;;;;;;6251536;22;20050;-56
2022/03/05 11:29:04;;;;;;;25.65;12.93;;;;;;;;;;6249475;22;20008;-57
2022/03/05 11:31:32;;;;;;;26.10;12.85;;;;;;;;;;6250226;22;20058;-56
2022/03/05 11:34:11;;;;;;;25.52;11.75;;;;;;;;;;6224914;22;20452;-56
2022/03/05 11:36:38;;;;;;;26.83;12.40;;;;;;;;;;6277209;22;20012;-56
2022/03/05 11:39:07;;;;;;;25.25;12.15;;;;;;;;;;6224576;22;20007;-56
2022/03/05 11:41:33;;;;;;;27.90;12.38;;;;;;;;;;6277350;22;20018;-56
2022/03/05 11:44:12;;;;;;;26.45;12.63;;;;;;;;;;6225204;22;20012;-56
2022/03/05 11:46:38;;;;;;;26.95;11.80;;;;;;;;;;6276984;22;20433;-56
2022/03/05 11:49:05;;;;;;;24.13;12.35;;;;;;;;;;6223785;22;20137;-56
2022/03/05 11:51:32;;;;;;;28.02;11.85;;;;;;;;;;6225274;22;20016;-56
2022/03/05 11:54:06;;;;;;;26.75;11.63;;;;;;;;;;6224739;22;20042;-56
2022/03/05 11:56:32;;;;;;;24.42;11.38;;;;;;;;;;6249749;22;20381;-56
2022/03/05 11:59:18;;;;;;;26.25;11.93;;;;;;;;;;6249922;22;20016;-58
2022/03/05 12:01:50;;;;;;;27.70;13.20;;;;;;;;;;6250566;22;20073;-56
2022/03/05 12:04:18;;;;;;;26.85;12.32;;;;;;;;;;6225698;22;20016;-56
2022/03/05 12:06:45;;;;;;;25.38;12.25;;;;;;;;;;6225130;22;20027;-56
2022/03/05 12:09:34;;;;;;;27.05;12.27;;;;;;;;;;6224684;22;20150;-56
2022/03/05 12:12:00;;;;;;;25.00;12.38;;;;;;;;;;6230699;22;20015;-56
2022/03/05 12:15:00;;;;;;;30.05;11.85;;;7.00;99.90;;;;;;6250454;22;20015;-56
2022/03/05 12:17:31;;;;;;;27.17;12.38;;;;;;;;;;6278245;22;20016;-55
2022/03/05 12:19:56;;;;;;;;;;;6.80;99.90;;;;;;6227328;22;20016;-55
2022/03/05 12:22:22;;;;;;;23.08;11.50;;;;;;;;;;6279177;22;19956;-56
2022/03/05 12:24:49;;;;;;;24.90;12.32;;;;;;;;;;6251492;22;20463;-56
2022/03/05 12:27:16;;;;;;;27.30;12.48;;;;;;;;;;6278794;22;20096;-55
2022/03/05 12:29:48;;;;;;;22.67;11.38;;;;;;;;;;6251162;22;20417;-56
2022/03/05 12:32:17;;;;;;;26.70;12.20;;;;;;;;;;6252007;22;20047;-56
2022/03/05 12:34:46;;;;;;;26.10;12.85;;;;;;;;;;6252912;22;20110;-56
2022/03/05 12:37:17;;;;;;;27.88;11.30;;;;;;;;;;6225852;22;20019;-55
2022/03/05 12:39:43;;;;;;;25.73;11.82;;;;;;;;;;6251481;22;20011;-56
2022/03/05 12:42:10;;;;;;;21.58;10.45;;;;;;;;;;6226936;22;20043;-56
2022/03/05 12:44:42;;;;;;;22.98;10.85;;;;;;;;;;6226459;22;20107;-56
2022/03/05 12:47:13;;;;;;;22.13;10.55;;;;;;;;;;6280150;22;20011;-55
2022/03/05 12:49:39;;;;;;;20.80;10.68;;;;;;;;;;6226550;22;20455;-56
2022/03/05 12:52:06;;;;;;;31.58;12.55;;;;;;;;;;6226144;22;20103;-56
2022/03/05 12:54:33;;;;;;;22.60;11.27;;;;;;;;;;6251773;22;20061;-56
2022/03/05 12:56:59;;;;;;;24.45;11.73;;;;;;;;;;6226327;22;20451;-56
2022/03/05 12:59:25;;;;;;;27.52;12.02;;;;;;;;;;6225327;22;20088;-56
2022/03/05 13:01:51;;;;;;;24.77;11.55;;;;;;;;;;6278977;22;20015;-56
2022/03/05 13:04:17;;;;;;;26.80;11.43;;;;;;;;;;6226311;22;20049;-56
2022/03/05 13:06:47;;;;;;;25.15;12.18;;;;;;;;;;6252893;22;20061;-56
2022/03/05 13:09:16;;;;;;;24.27;11.68;;;;;;;;;;6226041;22;20015;-57
2022/03/05 13:11:42;;;;;;;20.00;10.35;;;;;;;;;;6251585;22;20087;-56
2022/03/05 13:14:09;;;;;;;26.02;11.05;;;;;;;;;;6278714;22;20012;-56
2022/03/05 13:16:41;;;;;;;24.88;11.32;;;;;;;;;;6250627;22;20016;-65
2022/03/05 13:19:11;;;;;;;26.20;11.65;;;;;;;;;;6250924;22;20012;-63
2022/03/05 13:21:44;;;;;;;24.25;11.10;;;;;;;;;;6250951;22;20047;-64
2022/03/05 13:24:12;;;;;;;29.33;12.05;;;;;;;;;;6276924;22;20015;-64
2022/03/05 13:26:40;;;;;;;26.02;11.55;;;;;;;;;;6279264;22;20023;-63
2022/03/05 13:29:06;;;;;;;24.73;11.25;;;;;;;;;;6251170;22;20129;-63
2022/03/05 13:31:33;;;;;;;21.80;10.68;;;;;;;;;;6250191;22;20100;-63
2022/03/05 13:33:59;;;;;;;26.13;11.63;;;;;;;;;;6251667;22;20073;-59
2022/03/05 13:36:27;;;;;;;24.70;12.68;;;;;;;;;;6226465;22;20098;-61
2022/03/05 13:38:57;;;;;;;24.65;12.35;;;;;;;;;;6277790;22;20016;-62
2022/03/05 13:41:23;;;;;;;;;;;;;;;;;;6277852;22;20027;-62
2022/03/05 13:43:50;;;;;;;23.58;11.18;;;;;;;;;;6249938;22;19915;-62
2022/03/05 13:46:18;;;;;;;25.33;12.10;;;;;;;;;;6277364;22;20422;-62
2022/03/05 13:48:48;;;;;;;21.85;10.65;;;;;;;;;;6250576;22;20128;-62
2022/03/05 13:51:15;;;;;;;24.25;12.05;;;;;;;;;;6276987;22;20381;-62
2022/03/05 13:53:42;;;;;;;23.90;12.70;;;;;;;;;;6250810;22;20020;-61
2022/03/05 14:10:04;;;;;;;28.30;14.03;;;;;;;;;;6244843;22;1263404;-61
2022/03/05 14:12:33;;;;;;;24.17;12.63;;;;;;;;;;6258917;22;20240;-61
2022/03/05 14:15:09;;;;;;;24.75;11.93;;;;;;;;;;6258271;22;20015;-61
2022/03/05 14:17:41;;;;;;;27.67;13.10;;;;;;;;;;6285168;22;20096;-61
2022/03/05 15:11:00;;;;;;;28.23;13.20;;;;;;;;;;6208693;22;1449999;-60
2022/03/05 15:13:28;;;;;;;26.40;12.40;;;;;;;;;;6223935;23;20020;-60
2022/03/05 15:16:03;;;;;;;25.83;14.20;;;;;;;;;;6224538;23;20017;-61
2022/03/05 15:18:32;;;;;;;23.90;12.65;;;;;;;;;;6225508;23;20078;-60
2022/03/05 15:21:01;;;;;;;30.33;13.88;;;;;;;;;;6224394;23;20087;-60
2022/03/05 15:23:30;;;;;;;25.40;13.30;;;;;;;;;;6224392;23;20020;-60
2022/03/05 15:25:58;;;;;;;25.70;13.07;;;;;;;;;;6222830;23;20016;-60
2022/03/05 15:28:35;;;;;;;25.80;12.43;;;;;;;;;;6224126;23;20020;-61
2022/03/05 15:31:09;;;;;;;26.23;13.05;;;;;;;;;;6222038;23;20016;-60